• Join FlightAware (Why Join?)
  • Login
  • US Flag 
04:11PM EDT


 

Airport Tracker/Info


-or-


 

Live Flight TrackerFlight Track Log ✈ UPS2973 ✈ 21-Feb-2014 ✈ KPDX - KSDF

Flight Track Log - Related Links

Times and Time Zones

All times are in EST time to prevent confusion due to time zone crossing. See the UPS2973 flight status page for this flight to view local times or setup timezone preferences in your user account.

Time Position Orientation Groundspeed Altitude Reporting Facility
EST Latitude Longitude Course Direction KTS MPH feet Rate Location/Type
10:29AM 45.5797 -122.5695 96° East 167 192 1,300  Level FlightAware ADS-B
10:30AM 45.5760 -122.5427 101° East 198 228 1,700 1,800 Climbing FlightAware ADS-B
10:30AM 45.5671 -122.4901 104° East 238 274 3,100 2,100 Climbing FlightAware ADS-B
10:31AM 45.5609 -122.4530 103° East 262 302 3,800 2,520 Climbing FlightAware ADS-B
10:31AM 45.5554 -122.4191 103° East 271 312 4,800 2,700 Climbing FlightAware ADS-B
10:31AM 45.5522 -122.3885 99° East 279 321 5,600 2,580 Climbing FlightAware ADS-B
10:32AM 45.5618 -122.3540 68° East 277 319 6,600 2,580 Climbing FlightAware ADS-B
10:33AM 45.6354 -122.2050 92° East 319 367 10,500 2,160 Climbing FlightAware ADS-B
10:34AM 45.5521 -122.0065 92° East  Level Estimated
10:34AM 45.6804 -122.1148 54° Northeast 380 437 11,700  Level FlightAware ADS-B
10:35AM 45.7041 -122.0671 55° Northeast 417 480 13,200 2,400 Climbing FlightAware ADS-B
10:35AM 45.7403 -121.9860 57° Northeast 432 497 14,300 2,580 Climbing FlightAware ADS-B
10:35AM 45.7452 -121.9620 74° East 443 510 14,800 3,420 Climbing FlightAware ADS-B
10:35AM 45.7466 -121.9470 82° East 447 514 15,100 3,600 Climbing FlightAware ADS-B
10:36AM 45.7482 -121.9020 87° East 456 525 16,000 3,060 Climbing FlightAware ADS-B
10:36AM 45.7482 -121.8470 90° East 467 537 16,800 3,000 Climbing FlightAware ADS-B
10:37AM 45.7468 -121.7530 91° East 476 548 18,400 3,000 Climbing FlightAware ADS-B
10:37AM 45.7456 -121.6550 91° East 485 558 19,900 2,700 Climbing FlightAware ADS-B
10:38AM 45.7446 -121.5580 91° East 493 567 21,200 2,400 Climbing FlightAware ADS-B
10:38AM 45.7439 -121.4580 91° East 506 582 22,300 2,460 Climbing FlightAware ADS-B
10:39AM 45.7432 -121.3560 91° East 511 588 23,700 2,520 Climbing FlightAware ADS-B
10:39AM 45.7424 -121.2450 91° East 519 597 25,000 2,100 Climbing FlightAware ADS-B
10:40AM 45.7412 -121.1370 91° East 531 611 26,000 1,800 Climbing FlightAware ADS-B
10:40AM 45.7322 -121.0250 97° East 548 631 26,900 2,040 Climbing FlightAware ADS-B
10:41AM 45.6893 -120.8006 105° East 565 650 29,000 1,860 Climbing FlightAware ADS-B
10:42AM 45.6683 -120.7031 105° East 564 649 30,000 1,500 Climbing Seattle Center
10:43AM 45.6206 -120.4811 107° East 573 659 31,600 1,800 Climbing Seattle Center
10:44AM 45.5739 -120.2669 107° East 574 661 33,700 1,620 Climbing Seattle Center
10:45AM 45.5261 -120.0519 108° East 566 651 35,000 600 Climbing Seattle Center
10:46AM 45.4789 -119.8408 108° East 552 635 35,000  Level Seattle Center
10:47AM 45.4317 -119.6311 108° East 556 640 35,000  Level Seattle Center
10:48AM 45.3833 -119.4189 108° East 560 644 35,000  Level Seattle Center
10:49AM 45.3344 -119.2075 108° East 560 644 35,000  Level Seattle Center
10:50AM 45.2861 -118.9975 108° East 559 643 35,000  Level Seattle Center
10:51AM 45.2378 -118.7878 108° East 560 644 35,000  Level Seattle Center
10:52AM 45.1889 -118.5792 108° East 558 642 35,000  Level Seattle Center
10:53AM 45.1300 -118.3292 108° East 556 640 35,000  Level Seattle Center
10:54AM 45.0839 -118.1358 109° East 555 639 35,000  Level Seattle Center
10:55AM 45.0347 -117.9300 109° East 554 638 35,000  Level Seattle Center
10:56AM 44.9847 -117.7247 109° East 554 638 35,000  Level Seattle Center
10:57AM 44.9344 -117.5200 109° East 553 636 35,000  Level Seattle Center
10:58AM 44.8842 -117.3156 109° East 552 635 35,000  Level Seattle Center
10:59AM 44.8333 -117.1119 109° East 552 635 35,000  Level Seattle Center
11:00AM 44.7819 -116.9081 109° East 555 639 35,000  Level Seattle Center
11:01AM 44.7197 -116.6628 110° East 555 639 35,000  Level Seattle Center
11:02AM 44.6672 -116.4583 110° East 556 640 35,000  Level Seattle Center
11:03AM 44.6142 -116.2533 110° East 555 639 35,000  Level Seattle Center
11:04AM 44.5561 -116.0492 112° Southeast 548 631 35,000  Level Seattle Center
11:05AM 44.5156 -115.8772 108° East 556 640 35,000  Level Seattle Center
11:06AM 44.4647 -115.6711 109° East 555 639 35,000  Level Seattle Center
11:07AM 44.4439 -115.5500 104° East 556 640 35,000  Level Salt Lake Center
11:08AM 44.4228 -115.3403 98° East 548 631 35,000  Level Salt Lake Center
11:09AM 44.4014 -115.1297 98° East 548 631 35,000  Level Salt Lake Center
11:10AM 44.3817 -114.9208 97° East 545 627 35,000  Level Salt Lake Center
11:11AM 44.3553 -114.6728 98° East 541 623 35,000  Level Salt Lake Center
11:12AM 44.3350 -114.4636 98° East 543 625 35,000  Level Salt Lake Center
11:13AM 44.3142 -114.2575 98° East 540 621 35,000  Level Salt Lake Center
11:14AM 44.2922 -114.0572 99° East 529 609 35,000  Level Salt Lake Center
11:15AM 44.2728 -113.8586 98° East 525 604 35,000  Level Salt Lake Center
11:16AM 44.2472 -113.6317 99° East 530 610 35,000  Level Salt Lake Center
11:17AM 44.2236 -113.4339 99° East 539 620 35,000  Level Salt Lake Center
11:18AM 44.1950 -113.2061 100° East 536 617 35,000  Level Salt Lake Center
11:19AM 44.1731 -113.0133 99° East 531 611 35,000  Level Salt Lake Center
11:20AM 44.1456 -112.7897 100° East 527 606 35,000  Level Salt Lake Center
11:21AM 44.1217 -112.5964 100° East 530 610 35,000  Level Salt Lake Center
11:22AM 44.0925 -112.3686 100° East 537 618 35,000  Level Salt Lake Center
11:23AM 44.0675 -112.1733 100° East 538 619 35,000  Level Salt Lake Center
11:24AM 44.0403 -111.9539 100° East 526 605 35,000  Level Salt Lake Center
11:25AM 44.0144 -111.7600 100° East 532 612 35,000  Level Salt Lake Center
11:26AM 43.9844 -111.5336 100° East 536 617 35,000  Level Salt Lake Center
11:27AM 43.9564 -111.3386 101° East 540 621 35,000  Level Salt Lake Center
11:28AM 43.9264 -111.1100 100° East 543 625 35,000  Level Salt Lake Center
11:29AM 43.8978 -110.9125 101° East 546 628 35,000  Level Salt Lake Center
11:30AM 43.8656 -110.6800 101° East 551 634 35,000 -60 Level Salt Lake Center
11:31AM 43.8364 -110.4814 101° East 553 636 34,900  Descending Salt Lake Center
11:32AM 43.8083 -110.2819 101° East 552 635 35,000  Climbing Salt Lake Center
11:33AM 43.7733 -110.0453 101° East 560 644 35,000  Level Salt Lake Center
11:34AM 43.7428 -109.8447 102° East 560 644 35,000  Level Salt Lake Center
11:36AM 43.7061 -109.6108 102° East 559 643 35,000  Level Salt Lake Center
11:37AM 43.6756 -109.4089 102° East 561 646 35,000  Level Salt Lake Center
11:38AM 43.6428 -109.2017 102° East 558 642 35,000  Level Salt Lake Center
11:39AM 43.6036 -108.9536 102° East 554 638 35,000 -60 Level Salt Lake Center
11:40AM 43.5717 -108.7508 102° East 547 629 34,900  Descending Salt Lake Center
11:41AM 43.5392 -108.5533 103° East 536 617 35,000  Climbing Salt Lake Center
11:42AM 43.5067 -108.3564 103° East 532 612 35,000  Level Salt Lake Center
11:43AM 43.4747 -108.1583 102° East 533 613 35,000  Level Salt Lake Center
11:44AM 43.4400 -107.9589 103° East 536 617 35,000  Level Salt Lake Center
11:45AM 43.3994 -107.7158 103° East 544 626 35,000  Level Salt Lake Center
11:46AM 43.3647 -107.5108 103° East 552 635 35,000  Level Salt Lake Center
11:47AM 43.3292 -107.3067 103° East 552 635 35,000  Level Salt Lake Center
11:48AM 43.2936 -107.1044 104° East 549 632 35,000  Level Salt Lake Center
11:54AM 43.0599 -105.8274 104° East 542 624 35,000  Level FlightAware ADS-B (KEIK)
11:55AM 43.0263 -105.6504 104° East 540 621 35,000  Level FlightAware ADS-B (KEIK)
11:56AM 42.9799 -105.4096 105° East 539 620 35,000  Level FlightAware ADS-B (KEIK)
11:57AM 42.9541 -105.2767 105° East 540 621 35,000  Level FlightAware ADS-B (KEIK)
11:57AM 42.9344 -105.1762 105° East 540 621 35,000  Level FlightAware ADS-B (KEIK)
11:58AM 42.9020 -105.0121 105° East 541 623 35,000  Level FlightAware ADS-B (KEIK)
11:59AM 42.8757 -104.8797 105° East 543 625 35,000  Level FlightAware ADS-B (KEIK)
12:00PM 42.8398 -104.7002 105° East 544 626 35,000  Level FlightAware ADS-B (KEIK)
12:01PM 42.8128 -104.5654 105° East 545 627 35,000  Level FlightAware ADS-B (KEIK)
12:01PM 42.7930 -104.4684 105° East 546 628 35,000  Level FlightAware ADS-B (KEIK)
12:02PM 42.7662 -104.3372 105° East 546 628 35,000  Level FlightAware ADS-B (KEIK)
12:02PM 42.7461 -104.2381 105° East 548 631 35,000  Level FlightAware ADS-B (KEIK)
12:03PM 42.7224 -104.1240 106° East 547 629 35,000  Level FlightAware ADS-B (KEIK)
12:04PM 42.6725 -103.8839 106° East 546 628 35,000  Level FlightAware ADS-B (KEIK)
12:05PM 42.6460 -103.7579 106° East 546 628 35,000  Level FlightAware ADS-B (KEIK)
12:05PM 42.6249 -103.6574 106° East 546 628 35,000  Level FlightAware ADS-B (KEIK)
12:06PM 42.6051 -103.5644 106° East 549 632 35,000  Level FlightAware ADS-B (KEIK)
12:07PM 42.5528 -103.3190 106° East 550 633 35,000  Level FlightAware ADS-B (KEIK)
12:07PM 42.5330 -103.2267 106° East 549 632 35,000  Level FlightAware ADS-B (KEIK)
12:08PM 42.4963 -103.0569 106° East 549 632 35,000  Level FlightAware ADS-B (KEIK)
12:09PM 42.4570 -102.8773 106° East 551 634 35,000  Level FlightAware ADS-B (KEIK)
12:10PM 42.4356 -102.7802 107° East 550 633 35,000  Level FlightAware ADS-B (KEIK)
12:11PM 42.3941 -102.5944 107° East 550 633 35,000  Level FlightAware ADS-B (KEIK)
12:11PM 42.3685 -102.4787 107° East 547 629 35,000  Level FlightAware ADS-B (KEIK)
12:12PM 42.3483 -102.3885 107° East 540 621 35,000  Level FlightAware ADS-B (KEIK)
12:12PM 42.3131 -102.2308 107° East 537 618 35,000  Level FlightAware ADS-B (KEIK)
12:13PM 42.2881 -102.1202 107° East 542 624 35,000  Level FlightAware ADS-B (KEIK)
12:14PM 42.2564 -101.9820 107° East 542 624 35,000  Level FlightAware ADS-B (KEIK)
12:14PM 42.2258 -101.8481 107° East 543 625 35,000  Level FlightAware ADS-B (KEIK)
12:15PM 42.2054 -101.7601 107° East 542 624 35,000  Level FlightAware ADS-B (KEIK)
12:16PM 42.1697 -101.6064 107° East 544 626 35,000  Level FlightAware ADS-B (KEIK)
12:16PM 42.1359 -101.4614 107° East 544 626 35,000  Level FlightAware ADS-B (KEIK)
12:17PM 42.1006 -101.3011 107° East 543 625 35,000  Level Minneapolis Center
12:18PM 42.0781 -101.2203 111° Southeast 543 625 35,000  Level Denver Center
12:19PM 42.0267 -101.0036 108° East 543 625 35,000  Level Denver Center
12:20PM 41.9828 -100.8175 108° East 544 626 35,000  Level Denver Center
12:21PM 41.9300 -100.6022 108° East 543 625 35,000  Level Denver Center
12:22PM 41.8856 -100.4197 108° East 539 620 35,000  Level Denver Center
12:23PM 41.8336 -100.2056 108° East 539 620 35,000  Level Denver Center
12:24PM 41.7881 -100.0239 109° East 536 617 35,000  Level Denver Center
12:25PM 41.7353 -99.8117 108° East 536 617 35,000  Level Denver Center
12:26PM 41.6864 -99.6181 109° East 536 617 35,000  Level Denver Center
12:27PM 41.6378 -99.4292 109° East 535 616 35,000  Level Denver Center
12:28PM 41.5897 -99.2389 109° East 538 619 35,000  Level Denver Center
12:29PM 41.5397 -99.0481 109° East 540 621 35,000  Level Denver Center
12:30PM 41.4897 -98.8575 109° East 540 621 35,000  Level Denver Center
12:31PM 41.4403 -98.6664 109° East 537 618 35,000  Level Denver Center
12:32PM 41.3892 -98.4722 109° East 543 625 35,000  Level Denver Center
12:34PM 41.3161 -98.2000 110° East 553 636 35,000  Level Minneapolis Center
12:35PM 41.2639 -98.0058 110° East 556 640 35,000  Level Minneapolis Center
12:36PM 41.2111 -97.8117 110° East 555 639 35,000  Level Minneapolis Center
12:37PM 41.1478 -97.5811 110° East 553 636 35,000  Level Minneapolis Center
12:38PM 41.0928 -97.3825 110° East 552 635 35,000  Level Minneapolis Center
12:39PM 41.0433 -97.2047 110° East 550 633 35,000  Level Minneapolis Center
12:40PM 40.9903 -97.0164 110° East 549 632 35,000  Level Minneapolis Center
12:41PM 40.9372 -96.8283 110° East 549 632 35,000  Level Minneapolis Center
12:42PM 40.8836 -96.6406 111° Southeast 564 649 35,000  Level Minneapolis Center
12:43PM 40.8189 -96.4161 111° Southeast 550 633 35,000  Level Minneapolis Center
12:44PM 40.7647 -96.2286 111° Southeast 552 635 35,000  Level Minneapolis Center
12:45PM 40.7100 -96.0411 111° Southeast 555 639 35,000  Level Minneapolis Center
12:46PM 40.6547 -95.8525 111° Southeast 557 641 35,000  Level Minneapolis Center
12:47PM 40.5983 -95.6625 111° Southeast 560 644 35,000  Level Minneapolis Center
12:48PM 40.5417 -95.4722 111° Southeast 563 648 35,000  Level Minneapolis Center
12:49PM 40.4842 -95.2808 112° Southeast 567 652 35,000  Level Minneapolis Center
12:50PM 40.4144 -95.0503 112° Southeast 568 654 35,000  Level Minneapolis Center
12:51PM 40.3561 -94.8592 112° Southeast 567 652 35,000  Level Minneapolis Center
12:52PM 40.2975 -94.6681 112° Southeast 566 651 35,000  Level Minneapolis Center
12:53PM 40.2344 -94.4650 112° Southeast 564 649 35,000  Level Minneapolis Center
12:54PM 40.1761 -94.2772 112° Southeast 562 647 35,000  Level Minneapolis Center
12:55PM 40.1056 -94.0531 112° Southeast 563 648 35,000  Level Kansas City Center
12:57PM 40.0344 -93.8278 112° Southeast 567 652 35,000  Level Kansas City Center
12:58PM 39.9736 -93.6414 113° Southeast 566 651 35,000  Level Kansas City Center
12:59PM 39.9156 -93.4572 112° Southeast 563 648 35,000  Level Kansas City Center
01:00PM 39.8569 -93.2728 112° Southeast 562 647 35,000  Level Kansas City Center
01:01PM 39.7967 -93.0897 113° Southeast 561 646 35,000  Level Kansas City Center
01:02PM 39.7250 -92.8664 113° Southeast 562 647 35,000  Level Kansas City Center
01:03PM 39.6642 -92.6853 114° Southeast 561 646 35,000  Level Kansas City Center
01:04PM 39.6031 -92.5022 113° Southeast 560 644 35,000  Level Kansas City Center
01:05PM 39.5428 -92.3219 113° Southeast 560 644 35,000  Level Kansas City Center
01:06PM 39.4683 -92.1025 114° Southeast 560 644 35,000  Level Kansas City Center
01:07PM 39.4044 -91.9167 114° Southeast 563 648 35,000  Level Kansas City Center
01:08PM 39.3431 -91.7314 113° Southeast 564 649 35,000  Level Kansas City Center
01:09PM 39.2750 -91.5364 114° Southeast 565 650 35,000  Level Kansas City Center
01:10PM 39.2097 -91.3497 114° Southeast 568 654 35,000  Level Kansas City Center
01:11PM 39.1444 -91.1631 114° Southeast 569 655 35,000  Level Kansas City Center
01:16PM 38.8780 -90.0800 114° Southeast 563 648 35,000  Level FlightAware ADS-B (KMDH)
01:18PM 38.8247 -89.8757 108° East 563 648 35,000  Level FlightAware ADS-B (KMDH)
01:18PM 38.7982 -89.7747 109° East 565 650 35,000  Level FlightAware ADS-B (KMDH)
01:19PM 38.7699 -89.6677 109° East 566 651 35,000  Level FlightAware ADS-B (KMDH)
01:19PM 38.7350 -89.5365 109° East 568 654 35,000  Level FlightAware ADS-B (KMDH)
01:20PM 38.6748 -89.3105 109° East 568 654 35,000  Level FlightAware ADS-B (KMDH)
01:21PM 38.6470 -89.2068 109° East 569 655 35,000  Level FlightAware ADS-B (KMDH)
01:22PM 38.6203 -89.1079 109° East 569 655 35,000  Level FlightAware ADS-B (KMDH)
01:22PM 38.5951 -89.0143 109° East 568 654 35,000  Level FlightAware ADS-B (KMDH)
01:23PM 38.5687 -88.9150 109° East 568 654 35,000  Level FlightAware ADS-B (KMDH)
01:23PM 38.5362 -88.7925 109° East 568 654 35,000  Level FlightAware ADS-B (KMDH)
01:24PM 38.5099 -88.6944 109° East 569 655 35,000  Level FlightAware ADS-B (KMDH)
01:24PM 38.4842 -88.5992 109° East 569 655 35,000 -180 Level FlightAware ADS-B (KMDH)
01:25PM 38.4499 -88.4724 109° East 564 649 34,800 -1,680 Descending FlightAware ADS-B (KMDH)
01:25PM 38.4247 -88.3785 109° East 570 656 33,100 -3,660 Descending FlightAware ADS-B (KMDH)
01:26PM 38.3910 -88.2520 109° East 576 663 30,600 -4,140 Descending FlightAware ADS-B (KMDH)
01:27PM 38.3758 -88.1530 101° East 585 673 28,400 -3,360 Descending FlightAware ADS-B (KMDH)
01:27PM 38.3693 -88.0392 94° East 580 667 27,100 -1,500 Descending FlightAware ADS-B (KMDH)
01:28PM 38.3656 -87.9733 94° East 579 666 26,800 -840 Descending Indianapolis Center
01:29PM 38.3544 -87.7731 94° East 573 659 25,800 -1,380 Descending Indianapolis Center
01:30PM 38.3425 -87.5403 94° East 551 634 24,000 -2,220 Descending Indianapolis Center
01:31PM 38.3325 -87.3536 94° East 535 616 21,300 -2,820 Descending Indianapolis Center
01:32PM 38.3144 -87.1714 97° East 523 602 18,300 -2,580 Descending Indianapolis Center
01:33PM 38.2922 -87.0036 100° East 515 593 16,000 -2,520 Descending Indianapolis Center
01:34PM 38.2683 -86.8092 99° East 491 565 13,200 -1,380 Descending Indianapolis Center
01:40PM 38.1495 -86.0350 99° East 316 364 6,300 -1,080 Descending FlightAware ADS-B
01:41PM 38.1182 -85.9360 112° Southeast 304 350 6,000 -180 Descending FlightAware ADS-B
01:42PM 38.0806 -85.8183 112° Southeast 308 354 6,000  Level Indianapolis Center
01:43PM 38.0531 -85.7264 111° Southeast 293 337 6,000 -720 Level Indianapolis Center
01:44PM 38.0281 -85.6386 110° East 277 319 4,600 -1,020 Descending Indianapolis Center
01:45PM 38.0044 -85.5494 109° East 263 303 4,000 -900 Descending Indianapolis Center
01:47PM 38.1000 -85.5167 15° North 191 220 2,200 -480 Descending Louisville TRACON
01:49PM 38.1500 -85.6333 299° West 131 151 2,300  Climbing Louisville TRACON